createdAt,value
2018-04-13T00:01:00.029Z,2.10
2018-04-13T00:02:00.067Z,1.90
2018-04-13T00:03:00.105Z,2.00
2018-04-13T00:04:00.142Z,1.80
2018-04-13T00:05:00.231Z,1.90
2018-04-13T00:06:00.225Z,2.10
2018-04-13T00:07:00.255Z,2.10
2018-04-13T00:08:00.301Z,2.30
2018-04-13T00:09:00.335Z,2.20
2018-04-13T00:10:00.367Z,1.80
2018-04-13T00:11:00.413Z,2.20
2018-04-13T00:12:00.443Z,2.30
2018-04-13T00:13:00.480Z,2.40
2018-04-13T00:14:00.523Z,2.60
2018-04-13T00:15:00.555Z,2.60
2018-04-13T00:16:00.594Z,2.30
2018-04-13T00:17:00.630Z,2.10
2018-04-13T00:18:00.669Z,2.50
2018-04-13T00:19:00.706Z,2.40
2018-04-13T00:20:00.744Z,2.30
2018-04-13T00:21:00.790Z,1.80
2018-04-13T00:22:00.822Z,1.80
2018-04-13T00:23:00.861Z,2.40
2018-04-13T00:24:00.901Z,2.40
2018-04-13T00:25:00.933Z,2.10
2018-04-13T00:26:00.972Z,2.10
2018-04-13T00:27:01.008Z,2.30
2018-04-13T00:28:01.045Z,2.00
2018-04-13T00:29:01.086Z,2.00
2018-04-13T00:30:01.121Z,1.90
2018-04-13T00:31:01.159Z,1.90
2018-04-13T00:32:01.212Z,1.90
2018-04-13T00:33:01.234Z,2.00
2018-04-13T00:34:01.269Z,1.80
2018-04-13T00:35:01.308Z,2.00
2018-04-13T00:36:01.346Z,1.90
2018-04-13T00:37:01.384Z,1.70
2018-04-13T00:38:01.420Z,1.70
2018-04-13T00:39:01.460Z,1.70
2018-04-13T00:40:01.498Z,2.00
2018-04-13T00:41:01.535Z,2.00
2018-04-13T00:42:01.570Z,1.90
2018-04-13T00:43:01.606Z,2.10
2018-04-13T00:44:01.653Z,2.50
2018-04-13T00:45:01.683Z,2.10
2018-04-13T00:46:01.721Z,2.00
2018-04-13T00:47:01.757Z,2.10
2018-04-13T00:48:01.800Z,2.00
2018-04-13T00:49:01.833Z,2.10
2018-04-13T00:50:01.871Z,2.00
2018-04-13T00:51:01.907Z,2.20
2018-04-13T00:52:01.950Z,2.40
2018-04-13T00:53:01.985Z,1.90
2018-04-13T00:54:02.022Z,2.10
2018-04-13T00:55:02.064Z,2.30
2018-04-13T00:56:02.096Z,2.00
2018-04-13T00:57:02.132Z,1.90
2018-04-13T00:58:02.169Z,1.90
2018-04-13T00:59:02.215Z,2.00
2018-04-13T01:00:02.255Z,2.10
2018-04-13T01:01:02.282Z,1.80
2018-04-13T01:02:02.321Z,2.00
2018-04-13T01:03:02.356Z,1.90
2018-04-13T01:04:02.395Z,2.00
2018-04-13T01:05:02.432Z,2.00
2018-04-13T01:06:02.468Z,2.00
2018-04-13T01:07:02.507Z,1.90
2018-04-13T01:08:02.543Z,1.90
2018-04-13T01:09:02.581Z,2.00
2018-04-13T01:10:02.618Z,2.00
2018-04-13T01:11:02.655Z,1.90
2018-04-13T01:12:02.693Z,2.00
2018-04-13T01:13:02.737Z,2.20
2018-04-13T01:14:02.769Z,1.80
2018-04-13T01:15:02.805Z,1.90
2018-04-13T01:16:02.843Z,2.10
2018-04-13T01:17:02.881Z,2.20
2018-04-13T01:18:02.917Z,1.90
2018-04-13T01:19:02.954Z,2.10
2018-04-13T01:20:02.992Z,2.10
2018-04-13T01:21:03.031Z,2.00
2018-04-13T01:22:03.075Z,2.20
2018-04-13T01:23:03.109Z,2.00
2018-04-13T01:24:03.143Z,2.30
2018-04-13T01:25:03.188Z,2.20
2018-04-13T01:26:03.217Z,1.90
2018-04-13T01:27:03.263Z,2.40
2018-04-13T01:28:03.292Z,2.20
2018-04-13T01:29:03.331Z,2.40
2018-04-13T01:30:03.374Z,2.40
2018-04-13T01:31:03.409Z,2.00
2018-04-13T01:32:03.443Z,2.20
2018-04-13T01:33:03.481Z,2.20
2018-04-13T01:34:03.518Z,2.20
2018-04-13T01:35:03.564Z,2.20
2018-04-13T01:36:03.593Z,3.10
2018-04-13T01:37:03.631Z,2.90
2018-04-13T01:38:03.669Z,2.50
2018-04-13T01:39:03.707Z,2.50
2018-04-13T01:40:03.751Z,4.10
2018-04-13T01:41:03.789Z,4.10
2018-04-13T01:42:03.818Z,5.00
2018-04-13T01:43:03.855Z,4.10
2018-04-13T01:44:03.913Z,4.40
2018-04-13T01:45:03.930Z,3.40
2018-04-13T01:46:03.968Z,3.40
2018-04-13T01:47:04.007Z,3.00
2018-04-13T01:48:04.043Z,3.10
2018-04-13T01:49:04.080Z,2.80
2018-04-13T01:50:04.117Z,2.50
2018-04-13T01:51:04.155Z,2.90
2018-04-13T01:52:04.192Z,2.80
2018-04-13T01:53:04.233Z,2.90
2018-04-13T01:54:04.276Z,2.30
2018-04-13T01:55:04.312Z,2.80
2018-04-13T01:56:04.342Z,2.40
2018-04-13T01:57:04.381Z,2.80
2018-04-13T01:58:04.417Z,2.90
2018-04-13T01:59:04.456Z,2.70
2018-04-13T02:00:04.493Z,2.90
2018-04-13T02:01:04.531Z,2.50
2018-04-13T02:02:04.568Z,2.40
2018-04-13T02:03:04.605Z,2.50
2018-04-13T02:04:04.646Z,2.70
2018-04-13T02:05:04.681Z,2.50
2018-04-13T02:06:04.723Z,2.20
2018-04-13T02:07:04.756Z,2.60
2018-04-13T02:08:04.794Z,2.50
2018-04-13T02:09:04.833Z,2.60
2018-04-13T02:10:04.867Z,2.50
2018-04-13T02:11:04.906Z,2.50
2018-04-13T02:12:04.941Z,2.60
2018-04-13T02:13:04.981Z,2.60
2018-04-13T02:14:05.017Z,2.40
2018-04-13T02:15:05.052Z,2.60
2018-04-13T02:16:05.092Z,2.50
2018-04-13T02:17:05.127Z,2.60
2018-04-13T02:18:05.164Z,2.60
2018-04-13T02:19:05.210Z,2.60
2018-04-13T02:20:05.248Z,2.60
2018-04-13T02:21:05.277Z,2.80
2018-04-13T02:22:05.316Z,2.80
2018-04-13T02:23:05.352Z,2.70
2018-04-13T02:24:05.391Z,2.90
2018-04-13T02:25:05.426Z,2.50
2018-04-13T02:26:05.465Z,2.40
2018-04-13T02:27:05.503Z,2.70
2018-04-13T02:28:05.540Z,2.40
2018-04-13T02:29:05.576Z,2.90
2018-04-13T02:30:05.613Z,2.80
2018-04-13T02:31:05.652Z,2.80
2018-04-13T02:32:05.694Z,2.80
2018-04-13T02:33:05.725Z,2.80
2018-04-13T02:34:05.771Z,2.50
2018-04-13T02:35:05.806Z,2.50
2018-04-13T02:36:05.843Z,2.70
2018-04-13T02:37:05.878Z,2.60
2018-04-13T02:38:05.912Z,2.50
2018-04-13T02:39:05.957Z,2.60
2018-04-13T02:40:05.987Z,2.50
2018-04-13T02:41:06.025Z,2.80
2018-04-13T02:42:06.066Z,2.60
2018-04-13T02:43:06.100Z,2.50
2018-04-13T02:44:06.136Z,2.80
2018-04-13T02:45:06.173Z,2.70
2018-04-13T02:46:06.211Z,2.50
2018-04-13T02:47:06.247Z,2.50
2018-04-13T02:48:06.296Z,2.80
2018-04-13T02:49:06.324Z,2.30
2018-04-13T02:50:06.358Z,2.40
2018-04-13T02:51:06.396Z,2.60
2018-04-13T02:52:06.433Z,2.60
2018-04-13T02:53:06.469Z,2.60
2018-04-13T02:54:06.513Z,2.40
2018-04-13T02:55:06.544Z,2.70
2018-04-13T02:56:06.581Z,2.40
2018-04-13T02:57:06.617Z,2.60
2018-04-13T02:58:06.655Z,2.30
2018-04-13T02:59:06.692Z,2.70
2018-04-13T03:00:06.736Z,2.50
2018-04-13T03:01:06.767Z,2.20
2018-04-13T03:02:06.804Z,2.30
2018-04-13T03:03:06.840Z,2.40
2018-04-13T03:04:06.876Z,2.30
2018-04-13T03:05:06.913Z,2.50
2018-04-13T03:06:06.951Z,2.30
2018-04-13T03:07:06.987Z,2.50
2018-04-13T03:08:07.024Z,2.50
2018-04-13T03:09:07.062Z,2.40
2018-04-13T03:10:07.101Z,2.60
2018-04-13T03:11:07.137Z,2.70
2018-04-13T03:12:07.176Z,2.70
2018-04-13T03:13:07.213Z,2.80
2018-04-13T03:14:07.247Z,2.50
2018-04-13T03:15:07.284Z,2.50
2018-04-13T03:16:07.322Z,2.50
2018-04-13T03:17:07.358Z,2.70
2018-04-13T03:18:07.400Z,2.60
2018-04-13T03:19:07.433Z,2.80
2018-04-13T03:20:07.469Z,2.50
2018-04-13T03:21:07.505Z,2.60
2018-04-13T03:22:07.542Z,3.00
2018-04-13T03:23:07.580Z,2.70
2018-04-13T03:24:07.615Z,3.00
2018-04-13T03:25:07.652Z,3.30
2018-04-13T03:26:07.691Z,3.20
2018-04-13T03:27:07.728Z,2.90
2018-04-13T03:28:07.763Z,2.90
2018-04-13T03:29:07.803Z,3.30
2018-04-13T03:30:07.837Z,3.30
2018-04-13T03:31:07.873Z,3.20
2018-04-13T03:32:07.909Z,3.60
2018-04-13T03:33:07.954Z,3.30
2018-04-13T03:34:07.984Z,3.40
2018-04-13T03:35:08.020Z,3.70
2018-04-13T03:36:08.057Z,3.00
2018-04-13T03:37:08.094Z,3.10
2018-04-13T03:38:08.130Z,3.30
2018-04-13T03:39:08.166Z,2.90
2018-04-13T03:40:08.203Z,3.30
2018-04-13T03:41:08.246Z,2.90
2018-04-13T03:42:08.276Z,4.00
2018-04-13T03:43:08.315Z,3.20
2018-04-13T03:44:08.350Z,3.80
2018-04-13T03:45:08.386Z,4.00
2018-04-13T03:46:08.423Z,3.70
2018-04-13T03:47:08.501Z,4.00
2018-04-13T03:48:08.495Z,4.10
2018-04-13T03:49:08.533Z,4.50
2018-04-13T03:50:08.572Z,4.30
2018-04-13T03:51:08.615Z,3.90
2018-04-13T03:52:08.641Z,3.40
2018-04-13T03:53:08.681Z,3.80
2018-04-13T03:54:08.716Z,3.50
2018-04-13T03:55:08.752Z,3.10
2018-04-13T03:56:08.787Z,3.40
2018-04-13T03:57:08.824Z,3.30
2018-04-13T03:58:08.861Z,3.40
2018-04-13T03:59:08.898Z,3.30
2018-04-13T04:00:08.935Z,3.00
2018-04-13T04:01:08.970Z,3.20
2018-04-13T04:02:09.064Z,3.50
2018-04-13T04:03:09.042Z,3.00
2018-04-13T04:04:09.079Z,3.20
2018-04-13T04:05:09.117Z,3.40
2018-04-13T04:06:09.153Z,3.70
2018-04-13T04:07:09.188Z,3.60
2018-04-13T04:08:09.224Z,3.80
2018-04-13T04:09:09.262Z,3.50
2018-04-13T04:10:09.297Z,3.60
2018-04-13T04:11:09.334Z,3.30
2018-04-13T04:12:09.370Z,3.40
2018-04-13T04:13:09.405Z,3.20
2018-04-13T04:14:09.443Z,3.30
2018-04-13T04:15:09.480Z,3.20
2018-04-13T04:16:09.517Z,3.20
2018-04-13T04:17:09.551Z,3.40
2018-04-13T04:18:09.587Z,3.20
2018-04-13T04:19:09.623Z,3.40
2018-04-13T04:20:09.658Z,3.10
2018-04-13T04:21:09.695Z,3.30
2018-04-13T04:22:09.731Z,3.30
2018-04-13T04:23:09.768Z,3.20
2018-04-13T04:24:09.820Z,3.30
2018-04-13T04:25:09.839Z,3.50
2018-04-13T04:26:09.874Z,2.90
2018-04-13T04:27:09.919Z,3.60
2018-04-13T04:28:09.947Z,3.10
2018-04-13T04:29:09.988Z,3.00
2018-04-13T04:30:10.031Z,3.10
2018-04-13T04:31:10.057Z,3.40
2018-04-13T04:32:10.093Z,3.50
2018-04-13T04:33:10.136Z,3.10
2018-04-13T04:34:10.165Z,3.40
2018-04-13T04:35:10.206Z,3.00
2018-04-13T04:36:10.250Z,3.10
2018-04-13T04:37:10.275Z,2.90
2018-04-13T04:38:10.310Z,3.30
2018-04-13T04:39:10.355Z,3.20
2018-04-13T04:40:10.383Z,3.40
2018-04-13T04:41:10.420Z,3.30
2018-04-13T04:42:10.457Z,3.60
2018-04-13T04:43:10.495Z,3.70
2018-04-13T04:44:10.529Z,3.30
2018-04-13T04:45:10.564Z,3.50
2018-04-13T04:46:10.603Z,3.60
2018-04-13T04:47:10.640Z,3.90
2018-04-13T04:48:10.680Z,3.70
2018-04-13T04:49:10.712Z,3.60
2018-04-13T04:50:10.748Z,3.60
2018-04-13T04:51:10.786Z,3.40
2018-04-13T04:52:10.823Z,3.80
2018-04-13T04:53:10.860Z,3.60
2018-04-13T04:54:10.896Z,3.70
2018-04-13T04:55:10.932Z,3.70
2018-04-13T04:56:10.969Z,3.50
2018-04-13T04:57:11.006Z,3.60
2018-04-13T04:58:11.041Z,3.90
2018-04-13T04:59:11.079Z,3.60
2018-04-13T05:00:11.114Z,3.60
2018-04-13T05:01:11.149Z,3.70
2018-04-13T05:02:11.187Z,4.00
2018-04-13T05:03:11.433Z,4.10
2018-04-13T05:04:11.266Z,4.20
2018-04-13T05:05:11.296Z,4.50
2018-04-13T05:06:11.340Z,4.40
2018-04-13T05:07:11.369Z,4.50
2018-04-13T05:08:11.405Z,4.20
2018-04-13T05:09:11.446Z,4.50
2018-04-13T05:10:11.479Z,4.20
2018-04-13T05:11:11.516Z,4.60
2018-04-13T05:12:11.551Z,3.90
2018-04-13T05:13:11.591Z,4.00
2018-04-13T05:14:11.629Z,4.30
2018-04-13T05:15:11.662Z,4.30
2018-04-13T05:16:11.698Z,4.00
2018-04-13T05:17:11.746Z,4.00
2018-04-13T05:18:11.771Z,4.20
2018-04-13T05:19:11.809Z,4.10
2018-04-13T05:20:11.846Z,3.90
2018-04-13T05:21:11.883Z,4.10
2018-04-13T05:22:11.919Z,3.90
2018-04-13T05:23:11.954Z,4.20
2018-04-13T05:24:11.989Z,4.10
2018-04-13T05:25:12.028Z,3.90
2018-04-13T05:26:12.064Z,4.00
2018-04-13T05:27:12.103Z,4.60
2018-04-13T05:28:12.137Z,4.00
2018-04-13T05:29:12.176Z,3.90
2018-04-13T05:30:12.216Z,4.00
2018-04-13T05:31:12.249Z,4.00
2018-04-13T05:32:12.334Z,4.00
2018-04-13T05:33:12.321Z,4.20
2018-04-13T05:34:12.357Z,4.00
2018-04-13T05:35:12.427Z,4.40
2018-04-13T05:36:12.435Z,4.10
2018-04-13T05:37:12.471Z,4.10
2018-04-13T05:38:12.505Z,3.90
2018-04-13T05:39:12.543Z,4.10
2018-04-13T05:40:12.579Z,4.40
2018-04-13T05:41:12.615Z,4.40
2018-04-13T05:42:12.653Z,4.20
2018-04-13T05:43:12.689Z,6.70
2018-04-13T05:44:12.725Z,17.60
2018-04-13T05:45:12.761Z,19.00
2018-04-13T05:46:12.802Z,17.80
2018-04-13T05:47:12.835Z,13.10
2018-04-13T05:48:12.873Z,8.00
2018-04-13T05:49:12.916Z,7.30
2018-04-13T05:50:12.946Z,6.30
2018-04-13T05:51:12.984Z,6.90
2018-04-13T05:52:13.021Z,6.70
2018-04-13T05:53:13.061Z,7.50
2018-04-13T05:54:13.095Z,7.60
2018-04-13T05:55:13.133Z,5.70
2018-04-13T05:56:13.171Z,6.70
2018-04-13T05:57:13.206Z,5.80
2018-04-13T05:58:13.244Z,5.80
2018-04-13T05:59:13.281Z,5.20
2018-04-13T06:00:13.331Z,5.00
2018-04-13T06:01:13.354Z,5.30
2018-04-13T06:02:13.399Z,5.10
2018-04-13T06:03:13.436Z,4.90
2018-04-13T06:04:13.464Z,5.40
2018-04-13T06:05:13.503Z,5.10
2018-04-13T06:06:13.541Z,4.80
2018-04-13T06:07:13.576Z,5.20
2018-04-13T06:08:13.613Z,4.60
2018-04-13T06:09:13.659Z,4.90
2018-04-13T06:10:13.688Z,5.00
2018-04-13T06:11:13.726Z,5.10
2018-04-13T06:12:13.762Z,5.20
2018-04-13T06:13:13.799Z,5.40
2018-04-13T06:14:13.836Z,6.20
2018-04-13T06:15:13.873Z,7.50
2018-04-13T06:16:13.915Z,15.00
2018-04-13T06:17:13.957Z,10.20
2018-04-13T06:18:13.986Z,6.10
2018-04-13T06:19:14.021Z,5.80
2018-04-13T06:20:14.060Z,5.50
2018-04-13T06:21:14.097Z,5.40
2018-04-13T06:22:14.134Z,5.90
2018-04-13T06:23:14.176Z,6.00
2018-04-13T06:24:14.255Z,5.30
2018-04-13T06:25:14.245Z,5.40
2018-04-13T06:26:14.284Z,5.40
2018-04-13T06:27:14.321Z,5.60
2018-04-13T06:28:14.366Z,5.60
2018-04-13T06:29:14.393Z,5.30
2018-04-13T06:30:14.471Z,5.90
2018-04-13T06:31:14.467Z,6.00
2018-04-13T06:32:14.511Z,6.40
2018-04-13T06:33:14.540Z,6.10
2018-04-13T06:34:14.578Z,8.10
2018-04-13T06:35:14.616Z,11.10
2018-04-13T06:36:14.651Z,9.20
2018-04-13T06:37:14.701Z,9.60
2018-04-13T06:38:14.726Z,9.60
2018-04-13T06:39:14.763Z,7.90
2018-04-13T06:40:14.798Z,7.50
2018-04-13T06:41:14.835Z,6.80
2018-04-13T06:42:14.880Z,6.70
2018-04-13T06:43:14.911Z,7.50
2018-04-13T06:44:14.949Z,7.40
2018-04-13T06:45:14.984Z,7.90
2018-04-13T06:46:15.020Z,8.10
2018-04-13T06:47:15.065Z,8.20
2018-04-13T06:48:15.094Z,7.40
2018-04-13T06:49:15.131Z,7.00
2018-04-13T06:50:15.169Z,6.80
2018-04-13T06:51:15.209Z,6.50
2018-04-13T06:52:15.243Z,6.80
2018-04-13T06:53:15.279Z,6.80
2018-04-13T06:54:15.316Z,6.20
2018-04-13T06:55:15.354Z,6.50
2018-04-13T06:56:15.392Z,6.80
2018-04-13T06:57:15.431Z,6.30
2018-04-13T06:58:15.472Z,7.50
2018-04-13T06:59:15.502Z,9.30
2018-04-13T07:00:15.542Z,9.10
2018-04-13T07:01:15.626Z,8.50
2018-04-13T07:02:15.615Z,8.20
2018-04-13T07:03:15.650Z,7.90
2018-04-13T07:04:15.684Z,7.70
2018-04-13T07:05:15.723Z,8.30
2018-04-13T07:06:15.759Z,7.30
2018-04-13T07:07:15.795Z,7.80
2018-04-13T07:08:15.834Z,6.90
2018-04-13T07:09:15.866Z,7.40
2018-04-13T07:10:15.904Z,7.50
2018-04-13T07:11:15.947Z,7.00
2018-04-13T07:12:16.027Z,7.00
2018-04-13T07:13:16.014Z,7.30
2018-04-13T07:14:16.051Z,7.60
2018-04-13T07:15:16.088Z,7.60
2018-04-13T07:16:16.125Z,8.40
2018-04-13T07:17:16.162Z,8.10
2018-04-13T07:18:16.198Z,7.50
2018-04-13T07:19:16.271Z,7.20
2018-04-13T07:20:16.273Z,6.90
2018-04-13T07:21:16.317Z,7.00
2018-04-13T07:22:16.351Z,7.40
2018-04-13T07:23:16.383Z,7.30
2018-04-13T07:24:16.421Z,6.40
2018-04-13T07:25:16.466Z,7.30
2018-04-13T07:26:16.498Z,7.70
2018-04-13T07:27:16.535Z,7.20
2018-04-13T07:28:16.574Z,7.70
2018-04-13T07:29:16.604Z,8.20
2018-04-13T07:30:16.642Z,8.20
2018-04-13T07:31:16.679Z,7.90
2018-04-13T07:32:16.719Z,8.40
2018-04-13T07:33:16.753Z,8.60
2018-04-13T07:34:16.791Z,8.30
2018-04-13T07:35:16.832Z,9.20
2018-04-13T07:36:17.580Z,9.70
2018-04-13T07:37:16.900Z,8.70
2018-04-13T07:38:16.939Z,8.40
2018-04-13T07:39:16.992Z,8.30
2018-04-13T07:40:17.012Z,8.40
2018-04-13T07:41:17.051Z,8.40
2018-04-13T07:42:17.088Z,8.20
2018-04-13T07:43:17.271Z,8.30
2018-04-13T07:44:17.159Z,8.20
2018-04-13T07:45:17.197Z,8.30
2018-04-13T07:46:17.233Z,8.40
2018-04-13T07:47:17.348Z,8.00
2018-04-13T07:48:18.019Z,8.90
2018-04-13T07:49:17.348Z,8.20
2018-04-13T07:50:17.390Z,7.60
2018-04-13T07:51:17.420Z,7.90
2018-04-13T07:52:17.455Z,7.30
2018-04-13T07:53:17.492Z,7.20
2018-04-13T07:54:17.531Z,7.40
2018-04-13T07:55:17.567Z,7.70
2018-04-13T07:56:17.606Z,7.80
2018-04-13T07:57:17.641Z,7.90
2018-04-13T07:58:17.678Z,7.50
2018-04-13T07:59:17.716Z,7.70
2018-04-13T08:00:18.119Z,7.10
2018-04-13T08:01:17.791Z,8.00
2018-04-13T08:02:17.826Z,7.20
2018-04-13T08:03:17.866Z,8.00
2018-04-13T08:04:17.901Z,7.50
2018-04-13T08:05:17.939Z,7.90
2018-04-13T08:06:17.978Z,8.60
2018-04-13T08:07:18.015Z,8.50
2018-04-13T08:08:18.050Z,8.70
2018-04-13T08:09:18.089Z,9.00
2018-04-13T08:10:18.127Z,8.50
2018-04-13T08:11:18.163Z,10.20
2018-04-13T08:12:18.210Z,10.70
2018-04-13T08:13:18.236Z,11.00
2018-04-13T08:14:18.273Z,10.60
2018-04-13T08:15:18.313Z,11.40
2018-04-13T08:16:18.346Z,11.00
2018-04-13T08:17:18.389Z,10.40
2018-04-13T08:18:18.422Z,9.70
2018-04-13T08:19:18.459Z,10.20
2018-04-13T08:20:18.496Z,9.20
2018-04-13T08:21:18.535Z,9.40
2018-04-13T08:22:18.571Z,9.70
2018-04-13T08:23:18.643Z,10.50
2018-04-13T08:24:18.646Z,10.10
2018-04-13T08:25:18.682Z,10.30
2018-04-13T08:26:18.720Z,9.50
2018-04-13T08:27:18.757Z,10.00
2018-04-13T08:28:18.794Z,9.20
2018-04-13T08:29:18.835Z,9.40
2018-04-13T08:30:18.899Z,9.10
2018-04-13T08:31:18.938Z,9.90
2018-04-13T08:32:18.943Z,9.80
2018-04-13T08:33:18.980Z,9.70
2018-04-13T08:34:19.029Z,10.40
2018-04-13T08:35:19.055Z,9.60
2018-04-13T08:36:19.098Z,10.60
2018-04-13T08:37:19.140Z,9.50
2018-04-13T08:38:19.169Z,10.70
2018-04-13T08:39:19.205Z,10.10
2018-04-13T08:40:19.241Z,9.90
2018-04-13T08:41:19.279Z,10.70
2018-04-13T08:42:19.316Z,10.40
2018-04-13T08:43:19.463Z,10.40
2018-04-13T08:44:19.408Z,10.60
2018-04-13T08:45:19.428Z,11.60
2018-04-13T08:46:19.471Z,11.50
2018-04-13T08:47:19.508Z,12.00
2018-04-13T08:48:19.539Z,12.60
2018-04-13T08:49:19.577Z,12.70
2018-04-13T08:50:19.619Z,12.80
2018-04-13T08:51:19.652Z,13.40
2018-04-13T08:52:19.698Z,12.10
2018-04-13T08:53:19.732Z,12.60
2018-04-13T08:54:19.762Z,12.90
2018-04-13T08:55:19.799Z,13.00
2018-04-13T08:56:19.844Z,12.70
2018-04-13T08:57:19.877Z,13.90
2018-04-13T08:58:19.913Z,13.30
2018-04-13T08:59:19.947Z,13.90
2018-04-13T09:00:19.984Z,14.80
2018-04-13T09:01:20.021Z,15.30
2018-04-13T09:02:20.069Z,14.60
2018-04-13T09:03:20.097Z,16.50
2018-04-13T09:04:20.132Z,15.70
2018-04-13T09:05:20.168Z,16.20
2018-04-13T09:06:20.235Z,15.30
2018-04-13T09:07:20.273Z,16.20
2018-04-13T09:08:20.303Z,15.40
2018-04-13T09:09:20.317Z,18.00
2018-04-13T09:10:20.355Z,16.70
2018-04-13T09:11:20.391Z,16.00
2018-04-13T09:12:20.437Z,15.50
2018-04-13T09:13:20.467Z,16.80
2018-04-13T09:14:20.502Z,17.00
2018-04-13T09:15:20.539Z,17.40
2018-04-13T09:16:20.575Z,16.60
2018-04-13T09:17:20.613Z,17.20
2018-04-13T09:18:20.650Z,18.40
2018-04-13T09:19:20.698Z,18.50
2018-04-13T09:20:20.721Z,19.10
2018-04-13T09:21:20.764Z,17.60
2018-04-13T09:22:20.797Z,19.40
2018-04-13T09:23:20.833Z,20.10
2018-04-13T09:24:20.869Z,19.90
2018-04-13T09:25:20.918Z,20.60
2018-04-13T09:26:20.943Z,19.10
2018-04-13T09:27:20.981Z,20.40
2018-04-13T09:28:21.018Z,20.40
2018-04-13T09:29:21.054Z,18.90
2018-04-13T09:30:21.091Z,20.00
2018-04-13T09:31:21.130Z,18.90
2018-04-13T09:32:21.165Z,20.40
2018-04-13T09:33:21.201Z,20.40
2018-04-13T09:34:21.243Z,19.80
2018-04-13T09:35:21.275Z,21.20
2018-04-13T09:36:21.312Z,20.70
2018-04-13T09:37:21.350Z,20.70
2018-04-13T09:38:21.386Z,19.60
2018-04-13T09:39:21.432Z,18.80
2018-04-13T09:40:21.458Z,19.60
2018-04-13T09:41:21.497Z,20.80
2018-04-13T09:42:21.544Z,20.50
2018-04-13T09:43:21.580Z,19.40
2018-04-13T09:44:21.627Z,22.10
2018-04-13T09:45:21.655Z,24.40
2018-04-13T09:46:21.683Z,27.60
2018-04-13T09:47:21.718Z,28.20
2018-04-13T09:48:21.754Z,28.20
2018-04-13T09:49:21.796Z,28.80
2018-04-13T09:50:21.830Z,30.20
2018-04-13T09:51:21.866Z,31.90
2018-04-13T09:52:21.901Z,33.50
2018-04-13T09:53:21.939Z,35.50
2018-04-13T09:54:21.980Z,36.30
2018-04-13T09:55:22.017Z,38.90
2018-04-13T09:56:22.055Z,36.70
2018-04-13T09:57:22.088Z,40.80
2018-04-13T09:58:22.124Z,41.30
2018-04-13T09:59:22.161Z,43.10
2018-04-13T10:00:22.198Z,43.60
2018-04-13T10:01:22.238Z,44.00
2018-04-13T10:02:22.280Z,46.80
2018-04-13T10:03:22.310Z,43.60
2018-04-13T10:04:22.345Z,50.60
2018-04-13T10:05:22.382Z,45.90
2018-04-13T10:06:22.418Z,51.60
2018-04-13T10:07:22.460Z,50.10
2018-04-13T10:08:22.495Z,48.20
2018-04-13T10:09:22.531Z,48.50
2018-04-13T10:10:22.578Z,49.70
2018-04-13T10:11:22.604Z,47.00
2018-04-13T10:12:22.641Z,49.60
2018-04-13T10:13:22.687Z,50.70
2018-04-13T10:14:22.715Z,47.50
2018-04-13T10:15:22.753Z,47.30
2018-04-13T10:16:22.788Z,50.80
2018-04-13T10:17:22.834Z,49.70
2018-04-13T10:18:22.874Z,46.90
2018-04-13T10:19:22.902Z,43.60
2018-04-13T10:20:22.939Z,48.60
2018-04-13T10:21:22.976Z,48.40
2018-04-13T10:22:23.022Z,46.80
2018-04-13T10:23:23.050Z,51.00
2018-04-13T10:24:23.087Z,48.50
2018-04-13T10:25:23.131Z,46.30
2018-04-13T10:26:23.164Z,45.50
2018-04-13T10:27:23.200Z,45.30
2018-04-13T10:28:23.239Z,46.60
2018-04-13T10:29:23.276Z,48.60
2018-04-13T10:30:23.316Z,46.50
2018-04-13T10:31:23.351Z,49.60
2018-04-13T10:32:23.390Z,49.90
2018-04-13T10:33:23.427Z,46.90
2018-04-13T10:34:23.467Z,47.80
2018-04-13T10:35:23.514Z,47.50
2018-04-13T10:36:23.541Z,48.60
2018-04-13T10:37:23.581Z,51.60
2018-04-13T10:38:23.619Z,51.20
2018-04-13T10:39:23.654Z,47.30
2018-04-13T10:40:23.692Z,47.10
2018-04-13T10:41:23.730Z,52.10
2018-04-13T10:42:23.776Z,53.50
2018-04-13T10:43:23.807Z,50.50
2018-04-13T10:44:23.846Z,49.60
2018-04-13T10:45:23.882Z,51.50
2018-04-13T10:46:23.920Z,54.90
2018-04-13T10:47:23.959Z,48.80
2018-04-13T10:48:23.997Z,54.00
2018-04-13T10:49:24.078Z,51.40
2018-04-13T10:50:24.073Z,57.10
2018-04-13T10:51:24.112Z,56.20
2018-04-13T10:52:24.147Z,53.10
2018-04-13T10:53:24.189Z,55.30
2018-04-13T10:54:24.225Z,56.60
2018-04-13T10:55:24.260Z,57.10
2018-04-13T10:56:24.300Z,58.70
2018-04-13T10:57:24.343Z,59.40
2018-04-13T10:58:24.382Z,58.50
2018-04-13T10:59:24.417Z,57.90
2018-04-13T11:00:24.450Z,56.80
2018-04-13T11:01:24.485Z,61.60
2018-04-13T11:02:24.524Z,63.00
2018-04-13T11:03:24.569Z,62.80
2018-04-13T11:04:24.599Z,61.90
2018-04-13T11:05:24.636Z,61.00
2018-04-13T11:06:24.676Z,59.50
2018-04-13T11:07:24.713Z,62.10
2018-04-13T11:08:24.749Z,62.00
2018-04-13T11:09:24.791Z,58.60
2018-04-13T11:10:24.823Z,62.10
2018-04-13T11:11:24.861Z,63.00
2018-04-13T11:12:24.896Z,60.90
2018-04-13T11:13:24.936Z,61.50
2018-04-13T11:14:24.973Z,63.50
2018-04-13T11:15:25.011Z,58.00
2018-04-13T11:16:25.050Z,62.00
2018-04-13T11:17:25.141Z,62.50
2018-04-13T11:18:25.131Z,58.90
2018-04-13T11:19:25.160Z,61.10
2018-04-13T11:20:25.205Z,56.20
2018-04-13T11:21:25.236Z,56.90
2018-04-13T11:22:25.271Z,58.00
2018-04-13T11:23:25.310Z,57.20
2018-04-13T11:24:25.345Z,58.70
2018-04-13T11:25:25.386Z,57.60
2018-04-13T11:26:25.428Z,58.00
2018-04-13T11:27:25.457Z,57.70
2018-04-13T11:28:25.494Z,57.00
2018-04-13T11:29:25.536Z,52.20
2018-04-13T11:30:25.630Z,56.10
2018-04-13T11:31:25.606Z,51.70
2018-04-13T11:32:25.650Z,55.70
2018-04-13T11:33:25.682Z,53.90
2018-04-13T11:34:25.726Z,57.70
2018-04-13T11:35:25.755Z,55.80
2018-04-13T11:36:25.792Z,56.40
2018-04-13T11:37:25.830Z,56.10
2018-04-13T11:38:25.879Z,61.10
2018-04-13T11:39:25.905Z,57.90
2018-04-13T11:40:25.940Z,59.40
2018-04-13T11:41:25.979Z,58.30
2018-04-13T11:42:26.015Z,60.70
2018-04-13T11:43:26.056Z,58.30
2018-04-13T11:44:26.112Z,53.90
2018-04-13T11:45:26.128Z,59.20
2018-04-13T11:46:26.174Z,58.40
2018-04-13T11:47:26.200Z,57.00
2018-04-13T11:48:26.237Z,57.40
2018-04-13T11:49:26.277Z,57.30
2018-04-13T11:50:26.313Z,56.80
2018-04-13T11:51:26.348Z,57.90
2018-04-13T11:52:26.387Z,54.00
2018-04-13T11:53:26.424Z,55.30
2018-04-13T11:54:26.468Z,56.70
2018-04-13T11:55:26.496Z,56.20
2018-04-13T11:56:26.535Z,53.90
2018-04-13T11:57:26.570Z,59.40
2018-04-13T11:58:26.607Z,58.60
2018-04-13T11:59:26.647Z,55.90
2018-04-13T12:00:26.680Z,58.10
2018-04-13T12:01:26.721Z,59.20
2018-04-13T12:02:26.786Z,60.90
2018-04-13T12:03:26.892Z,63.00
2018-04-13T12:04:26.826Z,62.40
2018-04-13T12:05:26.865Z,65.80
2018-04-13T12:06:26.901Z,66.60
2018-04-13T12:07:26.939Z,64.10
2018-04-13T12:08:26.977Z,64.80
2018-04-13T12:09:27.012Z,64.40
2018-04-13T12:10:27.048Z,57.70
2018-04-13T12:11:27.090Z,58.10
2018-04-13T12:12:27.126Z,56.30
2018-04-13T12:13:27.158Z,51.80
2018-04-13T12:14:27.196Z,52.50
2018-04-13T12:15:27.232Z,55.80
2018-04-13T12:16:27.270Z,57.10
2018-04-13T12:17:27.306Z,54.80
2018-04-13T12:18:27.343Z,57.40
2018-04-13T12:19:27.379Z,55.30
2018-04-13T12:20:27.417Z,57.00
2018-04-13T12:21:27.452Z,56.90
2018-04-13T12:22:27.489Z,58.80
2018-04-13T12:23:27.527Z,56.10
2018-04-13T12:24:27.563Z,57.20
2018-04-13T12:25:27.648Z,53.50
2018-04-13T12:26:27.838Z,53.70
2018-04-13T12:27:27.673Z,51.90
2018-04-13T12:28:27.709Z,53.50
2018-04-13T12:29:27.746Z,54.10
2018-04-13T12:30:27.784Z,55.10
2018-04-13T12:31:27.829Z,54.90
2018-04-13T12:32:27.856Z,53.30
2018-04-13T12:33:27.893Z,58.90
2018-04-13T12:34:27.929Z,54.40
2018-04-13T12:35:27.965Z,56.10
2018-04-13T12:36:28.010Z,58.20
2018-04-13T12:37:28.045Z,62.10
2018-04-13T12:38:28.076Z,67.40
2018-04-13T12:39:28.112Z,63.30
2018-04-13T12:40:28.147Z,65.90
2018-04-13T12:41:28.193Z,61.20
2018-04-13T12:42:28.223Z,72.40
2018-04-13T12:43:28.258Z,70.40
2018-04-13T12:44:28.301Z,69.40
2018-04-13T12:45:28.332Z,68.90
2018-04-13T12:46:28.369Z,77.30
2018-04-13T12:47:28.407Z,69.50
2018-04-13T12:48:28.442Z,78.40
2018-04-13T12:49:28.477Z,63.30
2018-04-13T12:50:28.516Z,79.20
2018-04-13T12:51:28.560Z,76.80
2018-04-13T12:52:28.589Z,80.50
2018-04-13T12:53:28.668Z,78.00
2018-04-13T12:54:28.765Z,82.00
2018-04-13T12:55:28.730Z,81.30
2018-04-13T12:56:28.749Z,85.00
2018-04-13T12:57:28.771Z,79.70
2018-04-13T12:58:28.809Z,82.50
2018-04-13T12:59:28.847Z,82.20
2018-04-13T13:00:28.881Z,79.10
2018-04-13T13:01:28.918Z,79.70
2018-04-13T13:02:28.958Z,81.30
2018-04-13T13:03:28.990Z,81.00
2018-04-13T13:04:29.026Z,73.90
2018-04-13T13:05:29.061Z,81.70
2018-04-13T13:06:29.097Z,75.30
2018-04-13T13:07:29.143Z,65.30
2018-04-13T13:08:29.168Z,74.10
2018-04-13T13:09:29.221Z,61.90